map of SLH home
Great Circle Mapper logo
SLH - Airport
Location
City:  Sola, Vanua Lava Island, Banks Islands, Torba, Vanuatu
ICAO / IATA:NVSC / SLH

Details
Type:Airport (Aerodrome, Airfield)
Latitude:1351'06"S (-13.851666)
Longitude:16732'13"E (167.536944)
Elevation:7 ft (2 m)
Runways:unknown number
Longest:2297 ft (700 m)

Time
Time Zone:UTC+11
Local Time:

Weather
TAF:NVSC 221715Z 2218/2318 VRB01KT 9999 -SHRA SCT018 BKN030 OVC100 INTER 2218/2224 7000 TSRA SCT010 BKN015 FEW020CB OVC095

Related Locations
Nearby:
Farthest:NIK: 12373 mi / 19913 km
Niokolo-Koba, SN

Find:

   beyond  
but within

Other Information
Maps:
NOTAMs:
Links:
Sources:

  
flag of Vanuatu   

Sectional Chart

Flight Planning
at skyvector.com

Satellite Image

Google Maps Satellite View

 

Copyright © 2004-2014 Karl L. Swartz. All rights reserved.
The Great Circle Mapper name and logo are trademarks of the Great Circle Mapper.
All other trademarks mentioned herein belong to their respective owners.
Please see credits for attibutions and further copyright information.

  Follow gcmap on Facebook Follow gcmap on Twitter

hCard Microformat

Geo Microformat